createdAt,value
2023-03-12T00:02:23.418Z,1.50
2023-03-12T00:04:51.284Z,1.60
2023-03-12T00:07:19.076Z,1.23
2023-03-12T00:09:46.807Z,1.70
2023-03-12T00:12:14.590Z,1.33
2023-03-12T00:14:42.335Z,1.90
2023-03-12T00:17:11.502Z,1.80
2023-03-12T00:19:39.327Z,1.87
2023-03-12T00:22:07.155Z,1.83
2023-03-12T00:24:34.926Z,1.60
2023-03-12T00:27:02.691Z,1.80
2023-03-12T00:29:30.524Z,2.07
2023-03-12T00:31:58.308Z,1.80
2023-03-12T00:34:27.520Z,1.70
2023-03-12T00:36:55.294Z,1.70
2023-03-12T00:39:23.090Z,1.53
2023-03-12T00:41:50.960Z,1.83
2023-03-12T00:44:18.784Z,1.87
2023-03-12T00:46:46.670Z,1.80
2023-03-12T00:49:14.519Z,1.87
2023-03-12T00:51:43.570Z,1.80
2023-03-12T00:54:11.394Z,1.73
2023-03-12T00:56:39.277Z,1.60
2023-03-12T00:59:07.093Z,1.70
2023-03-12T01:01:34.889Z,1.60
2023-03-12T01:04:02.739Z,1.70
2023-03-12T01:06:30.594Z,1.37
2023-03-12T01:09:00.030Z,1.70
2023-03-12T01:11:27.841Z,1.60
2023-03-12T01:13:55.618Z,1.50
2023-03-12T01:16:28.197Z,1.50
2023-03-12T01:18:56.254Z,1.50
2023-03-12T01:21:24.860Z,1.73
2023-03-12T01:23:52.874Z,1.80
2023-03-12T01:26:22.088Z,1.60
2023-03-12T01:28:50.287Z,1.70
2023-03-12T01:31:19.748Z,1.40
2023-03-12T01:33:50.213Z,1.40
2023-03-12T01:36:20.307Z,1.27
2023-03-12T01:38:48.178Z,1.50
2023-03-12T01:41:15.903Z,1.30
2023-03-12T01:43:45.378Z,1.40
2023-03-12T01:46:32.301Z,1.40
2023-03-12T01:49:03.515Z,1.63
2023-03-12T01:51:33.442Z,1.30
2023-03-12T01:54:05.010Z,1.40
2023-03-12T01:56:35.351Z,1.50
2023-03-12T01:59:09.758Z,1.40
2023-03-12T02:01:38.645Z,1.37
2023-03-12T02:04:06.951Z,1.30
2023-03-12T02:06:39.325Z,1.30
2023-03-12T02:09:07.741Z,1.30
2023-03-12T02:11:35.574Z,1.07
2023-03-12T02:14:04.916Z,1.33
2023-03-12T02:16:33.753Z,1.20
2023-03-12T02:19:02.839Z,1.30
2023-03-12T02:21:33.748Z,1.10
2023-03-12T02:24:05.167Z,1.10
2023-03-12T02:26:35.227Z,1.20
2023-03-12T02:29:02.996Z,1.23
2023-03-12T02:31:34.575Z,1.10
2023-03-12T02:34:02.402Z,1.27
2023-03-12T02:36:30.327Z,0.93
2023-03-12T02:38:58.113Z,1.30
2023-03-12T02:41:28.438Z,1.23
2023-03-12T02:44:02.931Z,1.17
2023-03-12T02:46:31.841Z,1.20
2023-03-12T02:48:59.940Z,1.20
2023-03-12T02:51:27.697Z,1.10
2023-03-12T02:53:55.780Z,1.00
2023-03-12T02:56:24.526Z,1.20
2023-03-12T02:58:52.412Z,1.10
2023-03-12T03:01:21.658Z,1.27
2023-03-12T03:03:49.485Z,1.30
2023-03-12T03:06:17.388Z,0.97
2023-03-12T03:08:45.113Z,1.00
2023-03-12T03:11:13.269Z,1.10
2023-03-12T03:13:41.066Z,1.13
2023-03-12T03:16:09.425Z,1.00
2023-03-12T03:18:38.924Z,1.10
2023-03-12T03:21:09.106Z,1.03
2023-03-12T03:23:37.214Z,1.30
2023-03-12T03:26:05.396Z,1.20
2023-03-12T03:28:33.387Z,1.20
2023-03-12T03:31:01.817Z,1.23
2023-03-12T03:33:30.350Z,1.23
2023-03-12T03:36:01.316Z,1.07
2023-03-12T03:38:30.039Z,1.20
2023-03-12T03:40:58.188Z,1.20
2023-03-12T03:43:26.287Z,1.27
2023-03-12T03:45:58.129Z,1.20
2023-03-12T03:48:26.181Z,1.23
2023-03-12T03:50:53.959Z,1.20
2023-03-12T03:53:23.143Z,1.30
2023-03-12T03:55:50.877Z,1.30
2023-03-12T03:58:18.564Z,1.23
2023-03-12T04:00:46.579Z,1.23
2023-03-12T04:03:14.653Z,1.50
2023-03-12T04:08:17.642Z,1.00
2023-03-12T04:10:46.770Z,1.37
2023-03-12T04:13:14.558Z,1.17
2023-03-12T04:15:47.789Z,1.30
2023-03-12T04:18:15.622Z,1.27
2023-03-12T04:20:43.702Z,1.10
2023-03-12T04:23:12.119Z,1.10
2023-03-12T04:25:40.244Z,1.20
2023-03-12T04:28:09.495Z,1.00
2023-03-12T04:30:38.295Z,0.97
2023-03-12T04:33:06.362Z,1.13
2023-03-12T04:35:34.287Z,1.10
2023-03-12T04:38:02.598Z,0.97
2023-03-12T04:40:30.464Z,1.10
2023-03-12T04:42:58.251Z,1.23
2023-03-12T04:45:27.566Z,1.00
2023-03-12T04:47:55.442Z,1.10
2023-03-12T04:50:23.446Z,1.20
2023-03-12T04:52:51.230Z,1.00
2023-03-12T04:55:19.279Z,1.10
2023-03-12T04:57:47.051Z,1.20
2023-03-12T05:00:15.658Z,1.37
2023-03-12T05:02:44.926Z,1.20
2023-03-12T05:05:12.742Z,1.20
2023-03-12T05:07:40.504Z,1.10
2023-03-12T05:10:09.316Z,1.30
2023-03-12T05:12:37.165Z,0.73
2023-03-12T05:15:05.504Z,1.10
2023-03-12T05:17:33.336Z,1.17
2023-03-12T05:20:02.484Z,1.00
2023-03-12T05:22:30.215Z,1.10
2023-03-12T05:24:58.119Z,0.93
2023-03-12T05:27:26.503Z,1.20
2023-03-12T05:29:54.434Z,1.10
2023-03-12T05:32:22.169Z,1.00
2023-03-12T05:34:49.986Z,1.20
2023-03-12T05:37:19.169Z,1.10
2023-03-12T05:39:47.609Z,1.23
2023-03-12T05:42:15.782Z,1.17
2023-03-12T05:44:43.718Z,1.20
2023-03-12T05:47:11.668Z,1.20
2023-03-12T05:49:39.577Z,1.00
2023-03-12T05:52:07.897Z,1.40
2023-03-12T05:54:37.279Z,1.00
2023-03-12T05:57:05.196Z,1.10
2023-03-12T05:59:33.015Z,1.13
2023-03-12T06:02:00.902Z,1.20
2023-03-12T06:04:28.598Z,1.40
2023-03-12T06:06:56.450Z,1.17
2023-03-12T06:09:24.446Z,1.20
2023-03-12T06:11:53.572Z,1.10
2023-03-12T06:14:21.416Z,1.00
2023-03-12T06:16:49.240Z,1.10
2023-03-12T06:19:17.088Z,1.30
2023-03-12T06:21:45.014Z,1.20
2023-03-12T06:24:12.694Z,1.10
2023-03-12T06:26:40.529Z,1.27
2023-03-12T06:29:09.656Z,1.27
2023-03-12T06:31:39.714Z,1.23
2023-03-12T06:34:07.647Z,1.07
2023-03-12T06:36:35.543Z,1.13
2023-03-12T06:39:06.095Z,1.10
2023-03-12T06:41:33.864Z,1.33
2023-03-12T06:44:03.697Z,1.50
2023-03-12T06:46:33.669Z,1.17
2023-03-12T06:49:01.418Z,1.20
2023-03-12T06:51:29.243Z,1.30
2023-03-12T06:53:57.083Z,1.40
2023-03-12T06:56:24.899Z,1.10
2023-03-12T06:58:52.620Z,1.20
2023-03-12T07:01:20.388Z,1.20
2023-03-12T07:03:49.674Z,1.23
2023-03-12T07:09:06.024Z,1.60
2023-03-12T07:11:33.820Z,1.30
2023-03-12T07:14:01.716Z,1.13
2023-03-12T07:16:30.198Z,1.20
2023-03-12T07:18:58.975Z,1.27
2023-03-12T07:21:26.799Z,1.13
2023-03-12T07:23:54.565Z,1.20
2023-03-12T07:26:23.733Z,1.00
2023-03-12T07:28:51.564Z,1.10
2023-03-12T07:31:19.427Z,1.10
2023-03-12T07:33:47.332Z,1.37
2023-03-12T07:36:15.242Z,1.13
2023-03-12T07:38:43.180Z,1.10
2023-03-12T07:41:10.990Z,1.10
2023-03-12T07:43:40.225Z,1.27
2023-03-12T07:46:08.048Z,1.03
2023-03-12T07:48:36.160Z,1.13
2023-03-12T07:51:03.935Z,1.03
2023-03-12T07:53:31.729Z,1.10
2023-03-12T07:55:59.730Z,1.00
2023-03-12T07:58:27.745Z,1.23
2023-03-12T08:00:57.820Z,1.20
2023-03-12T08:03:25.890Z,1.10
2023-03-12T08:19:09.387Z,1.40
2023-03-12T08:21:37.154Z,1.00
2023-03-12T08:24:05.183Z,1.30
2023-03-12T08:26:33.009Z,1.30
2023-03-12T08:29:01.289Z,1.03
2023-03-12T08:31:30.684Z,1.20
2023-03-12T08:33:59.080Z,0.90
2023-03-12T08:36:28.311Z,0.97
2023-03-12T08:38:56.202Z,1.20
2023-03-12T08:41:24.110Z,1.10
2023-03-12T08:43:51.945Z,1.20
2023-03-12T08:46:20.056Z,1.20
2023-03-12T08:48:47.916Z,1.03
2023-03-12T08:51:16.875Z,1.00
2023-03-12T08:53:46.490Z,1.00
2023-03-12T08:56:14.400Z,1.03
2023-03-12T08:58:42.248Z,1.00
2023-03-12T09:01:10.675Z,0.90
2023-03-12T09:03:38.943Z,1.20
2023-03-12T09:08:47.579Z,1.37
2023-03-12T09:11:16.242Z,1.23
2023-03-12T09:14:16.943Z,1.23
2023-03-12T09:16:31.947Z,0.90
2023-03-12T09:18:59.722Z,1.00
2023-03-12T09:21:27.505Z,1.00
2023-03-12T09:23:56.658Z,1.00
2023-03-12T09:26:25.502Z,1.00
2023-03-12T09:28:53.448Z,0.83
2023-03-12T09:31:21.634Z,0.97
2023-03-12T09:33:49.443Z,0.97
2023-03-12T09:36:17.215Z,0.90
2023-03-12T09:38:45.052Z,1.00
2023-03-12T09:41:22.990Z,1.00
2023-03-12T09:43:54.225Z,1.50
2023-03-12T09:46:26.759Z,1.70
2023-03-12T09:48:57.360Z,1.30
2023-03-12T09:51:29.962Z,1.20
2023-03-12T09:54:00.443Z,1.40
2023-03-12T09:56:29.645Z,1.30
2023-03-12T09:58:57.435Z,1.17
2023-03-12T10:01:34.698Z,0.83
2023-03-12T10:04:08.773Z,0.90
2023-03-12T10:06:41.659Z,0.80
2023-03-12T10:09:21.010Z,1.07
2023-03-12T10:11:56.946Z,1.10
2023-03-12T10:14:37.740Z,1.20
2023-03-12T10:17:20.379Z,0.93
2023-03-12T10:19:57.498Z,1.10
2023-03-12T10:22:46.262Z,1.00
2023-03-12T10:25:18.251Z,1.00
2023-03-12T10:27:48.936Z,1.10
2023-03-12T10:30:19.979Z,1.00
2023-03-12T10:32:50.686Z,1.10
2023-03-12T10:35:21.979Z,1.00
2023-03-12T10:37:51.826Z,0.97
2023-03-12T10:40:22.906Z,1.17
2023-03-12T10:42:52.561Z,0.93
2023-03-12T10:45:30.648Z,1.00
2023-03-12T10:48:00.434Z,1.20
2023-03-12T10:50:31.094Z,1.10
2023-03-12T10:53:21.216Z,1.20
2023-03-12T10:56:00.074Z,1.10
2023-03-12T10:58:33.423Z,0.90
2023-03-12T11:01:03.850Z,0.90
2023-03-12T11:03:31.909Z,0.90
2023-03-12T11:06:01.220Z,0.80
2023-03-12T11:08:30.405Z,0.97
2023-03-12T11:10:59.453Z,0.90
2023-03-12T11:13:33.425Z,0.83
2023-03-12T11:16:02.910Z,1.00
2023-03-12T11:18:33.333Z,0.80
2023-03-12T11:21:18.396Z,1.00
2023-03-12T11:23:49.210Z,0.80
2023-03-12T11:26:19.412Z,0.80
2023-03-12T11:28:51.200Z,1.00
2023-03-12T11:31:24.676Z,0.80
2023-03-12T11:33:53.790Z,0.80
2023-03-12T11:36:31.047Z,1.10
2023-03-12T11:39:04.575Z,1.10
2023-03-12T11:41:41.588Z,0.90
2023-03-12T11:44:22.379Z,1.10
2023-03-12T11:46:59.180Z,0.80
2023-03-12T11:49:35.885Z,1.00
2023-03-12T11:52:05.860Z,1.20
2023-03-12T11:54:50.522Z,0.90
2023-03-12T11:57:25.987Z,1.00
2023-03-12T12:00:12.276Z,1.10
2023-03-12T12:02:58.402Z,1.13
2023-03-12T12:05:32.744Z,1.10
2023-03-12T12:08:22.672Z,0.90
2023-03-12T12:10:57.590Z,1.20
2023-03-12T12:13:33.881Z,1.17
2023-03-12T12:16:23.106Z,1.20
2023-03-12T12:18:59.738Z,0.83
2023-03-12T12:21:41.958Z,1.00
2023-03-12T12:24:18.484Z,0.90
2023-03-12T12:26:51.367Z,1.10
2023-03-12T12:29:22.721Z,0.93
2023-03-12T12:31:54.847Z,1.10
2023-03-12T12:34:56.741Z,0.90
2023-03-12T12:37:32.681Z,1.13
2023-03-12T12:40:09.740Z,0.90
2023-03-12T12:42:44.801Z,1.00
2023-03-12T12:45:14.078Z,1.17
2023-03-12T12:47:47.787Z,1.20
2023-03-12T12:50:18.700Z,1.10
2023-03-12T12:52:47.862Z,1.10
2023-03-12T12:55:21.271Z,1.20
2023-03-12T12:57:55.956Z,1.27
2023-03-12T13:00:35.130Z,1.30
2023-03-12T13:03:04.950Z,1.43
2023-03-12T13:05:45.397Z,1.13
2023-03-12T13:08:34.480Z,1.40
2023-03-12T13:11:17.282Z,1.13
2023-03-12T13:13:47.487Z,1.13
2023-03-12T13:16:22.383Z,1.17
2023-03-12T13:19:21.192Z,1.20
2023-03-12T13:22:00.275Z,1.13
2023-03-12T13:24:31.631Z,0.90
2023-03-12T13:27:02.712Z,1.10
2023-03-12T13:29:39.781Z,1.10
2023-03-12T13:32:30.490Z,1.30
2023-03-12T13:34:59.803Z,1.10
2023-03-12T13:38:01.864Z,1.10
2023-03-12T13:40:52.037Z,1.07
2023-03-12T13:43:56.332Z,1.17
2023-03-12T13:46:45.377Z,1.10
2023-03-12T13:49:18.986Z,0.80
2023-03-12T13:52:00.766Z,1.00
2023-03-12T13:54:32.642Z,1.70
2023-03-12T13:57:03.736Z,1.27
2023-03-12T13:59:32.471Z,1.33
2023-03-12T14:02:07.159Z,1.10
2023-03-12T14:04:37.359Z,1.30
2023-03-12T14:07:29.442Z,1.13
2023-03-12T14:10:06.612Z,0.97
2023-03-12T14:12:40.580Z,1.00
2023-03-12T14:15:25.238Z,1.20
2023-03-12T14:17:57.677Z,1.00
2023-03-12T14:20:25.838Z,0.90
2023-03-12T14:22:56.531Z,1.30
2023-03-12T14:25:30.873Z,1.33
2023-03-12T14:27:58.679Z,1.10
2023-03-12T14:30:33.301Z,1.10
2023-03-12T14:33:03.151Z,1.00
2023-03-12T14:35:35.067Z,1.03
2023-03-12T14:38:06.089Z,1.10
2023-03-12T14:40:39.032Z,0.87
2023-03-12T14:43:21.136Z,1.00
2023-03-12T14:45:51.618Z,1.00
2023-03-12T14:48:22.505Z,1.00
2023-03-12T14:50:50.254Z,1.13
2023-03-12T14:53:24.487Z,1.00
2023-03-12T14:56:06.887Z,1.00
2023-03-12T14:58:36.661Z,1.03
2023-03-12T15:01:06.946Z,1.23
2023-03-12T15:03:38.198Z,1.00
2023-03-12T15:06:06.644Z,0.90
2023-03-12T15:08:36.037Z,1.10
2023-03-12T15:11:03.852Z,0.83
2023-03-12T15:13:31.781Z,0.80
2023-03-12T15:15:59.673Z,0.93
2023-03-12T15:18:29.519Z,1.00
2023-03-12T15:20:59.057Z,0.70
2023-03-12T15:23:27.482Z,1.00
2023-03-12T15:26:13.800Z,1.07
2023-03-12T15:28:42.100Z,1.00
2023-03-12T15:31:13.837Z,1.10
2023-03-12T15:33:42.911Z,0.90
2023-03-12T15:36:25.535Z,1.00
2023-03-12T15:38:55.453Z,0.80
2023-03-12T15:41:28.302Z,0.90
2023-03-12T15:43:57.958Z,1.07
2023-03-12T15:46:26.194Z,1.00
2023-03-12T15:48:55.299Z,1.00
2023-03-12T15:51:34.532Z,0.90
2023-03-12T15:54:03.818Z,0.80
2023-03-12T15:56:34.839Z,0.90
2023-03-12T15:59:05.583Z,0.77
2023-03-12T16:01:45.480Z,1.00
2023-03-12T16:04:13.823Z,1.10
2023-03-12T16:09:27.356Z,0.90
2023-03-12T16:11:56.914Z,0.90
2023-03-12T16:14:27.164Z,0.80
2023-03-12T16:16:54.986Z,1.00
2023-03-12T16:19:23.928Z,1.00
2023-03-12T16:21:51.853Z,1.00
2023-03-12T16:24:19.967Z,0.90
2023-03-12T16:26:50.799Z,0.93
2023-03-12T16:29:21.295Z,1.33
2023-03-12T16:31:50.780Z,1.30
2023-03-12T16:34:18.564Z,1.17
2023-03-12T16:36:46.388Z,1.10
2023-03-12T16:39:14.323Z,0.93
2023-03-12T16:41:42.236Z,1.20
2023-03-12T16:44:15.554Z,1.07
2023-03-12T16:46:45.862Z,1.20
2023-03-12T16:49:15.851Z,1.20
2023-03-12T16:51:43.712Z,1.43
2023-03-12T16:54:12.399Z,1.40
2023-03-12T16:56:42.673Z,1.30
2023-03-12T16:59:17.572Z,1.47
2023-03-12T17:01:46.844Z,1.40
2023-03-12T17:04:14.778Z,1.47
2023-03-12T17:06:42.662Z,2.60
2023-03-12T17:09:10.457Z,3.40
2023-03-12T17:11:39.280Z,3.03
2023-03-12T17:14:16.845Z,2.83
2023-03-12T17:16:46.322Z,3.00
2023-03-12T17:19:14.199Z,2.60
2023-03-12T17:21:42.104Z,2.43
2023-03-12T17:24:11.554Z,2.43
2023-03-12T17:26:39.319Z,2.70
2023-03-12T17:29:07.322Z,2.83
2023-03-12T17:31:37.474Z,2.93
2023-03-12T17:34:07.211Z,2.73
2023-03-12T17:36:37.100Z,2.60
2023-03-12T17:39:05.085Z,2.33
2023-03-12T17:41:33.104Z,2.43
2023-03-12T17:44:02.147Z,2.97
2023-03-12T17:46:30.702Z,2.80
2023-03-12T17:48:58.595Z,3.03
2023-03-12T17:51:27.763Z,3.20
2023-03-12T17:53:55.605Z,4.13
2023-03-12T17:56:23.375Z,4.30
2023-03-12T17:58:51.133Z,4.37
2023-03-12T18:01:19.126Z,4.47
2023-03-12T18:03:46.927Z,4.73
2023-03-12T18:06:14.862Z,4.43
2023-03-12T18:08:44.096Z,4.17
2023-03-12T18:11:11.908Z,4.40
2023-03-12T18:13:40.937Z,4.60
2023-03-12T18:16:09.147Z,4.47
2023-03-12T18:18:37.040Z,3.90
2023-03-12T18:21:05.195Z,3.70
2023-03-12T18:23:33.074Z,3.80
2023-03-12T18:26:02.209Z,3.40
2023-03-12T18:28:30.016Z,3.80
2023-03-12T18:30:58.006Z,3.33
2023-03-12T18:33:25.860Z,3.83
2023-03-12T18:35:54.619Z,4.20
2023-03-12T18:38:22.582Z,4.20
2023-03-12T18:40:51.327Z,4.40
2023-03-12T18:43:21.917Z,5.17
2023-03-12T18:45:51.015Z,6.27
2023-03-12T18:48:18.864Z,7.70
2023-03-12T18:50:46.596Z,7.07
2023-03-12T18:53:14.415Z,6.07
2023-03-12T18:55:42.207Z,5.60
2023-03-12T18:58:10.014Z,5.10
2023-03-12T19:00:39.114Z,4.60
2023-03-12T19:03:06.965Z,4.17
2023-03-12T19:05:35.036Z,4.23
2023-03-12T19:08:02.734Z,4.97
2023-03-12T19:10:30.584Z,4.37
2023-03-12T19:12:59.052Z,4.47
2023-03-12T19:15:26.954Z,4.13
2023-03-12T19:17:56.149Z,4.03
2023-03-12T19:20:23.892Z,4.40
2023-03-12T19:22:51.944Z,4.60
2023-03-12T19:25:20.482Z,4.47
2023-03-12T19:27:48.528Z,5.20
2023-03-12T19:30:16.846Z,7.27
2023-03-12T19:32:44.934Z,8.57
2023-03-12T19:35:15.608Z,8.97
2023-03-12T19:37:43.632Z,12.20
2023-03-12T19:40:13.353Z,12.57
2023-03-12T19:42:41.345Z,11.80
2023-03-12T19:45:10.232Z,11.17
2023-03-12T19:47:38.015Z,9.17
2023-03-12T19:50:06.732Z,8.43
2023-03-12T19:52:36.070Z,8.23
2023-03-12T19:55:05.630Z,7.33
2023-03-12T19:57:34.126Z,7.13
2023-03-12T20:00:01.898Z,6.53
2023-03-12T20:02:29.794Z,6.50
2023-03-12T20:04:57.629Z,6.20
2023-03-12T20:10:10.992Z,6.43
2023-03-12T20:12:39.164Z,5.63
2023-03-12T20:15:08.112Z,7.23
2023-03-12T20:17:35.953Z,6.80
2023-03-12T20:20:05.885Z,6.53
2023-03-12T20:22:36.143Z,6.47
2023-03-12T20:25:04.232Z,6.07
2023-03-12T20:27:34.194Z,6.67
2023-03-12T20:30:03.631Z,6.93
2023-03-12T20:32:31.803Z,8.50
2023-03-12T20:34:59.593Z,9.37
2023-03-12T20:37:28.006Z,9.37
2023-03-12T20:39:55.873Z,9.63
2023-03-12T20:42:23.604Z,8.93
2023-03-12T20:44:52.792Z,9.03
2023-03-12T20:47:20.638Z,9.33
2023-03-12T20:49:48.488Z,8.67
2023-03-12T20:52:16.414Z,9.97
2023-03-12T20:54:44.211Z,8.77
2023-03-12T20:57:12.014Z,8.70
2023-03-12T20:59:39.730Z,8.53
2023-03-12T21:02:08.978Z,7.77
2023-03-12T21:04:36.982Z,7.70
2023-03-12T21:07:04.812Z,7.93
2023-03-12T21:09:32.701Z,7.50
2023-03-12T21:12:02.843Z,7.67
2023-03-12T21:14:30.772Z,6.90
2023-03-12T21:16:58.851Z,6.70
2023-03-12T21:19:30.257Z,7.20
2023-03-12T21:21:58.101Z,7.07
2023-03-12T21:24:25.941Z,6.90
2023-03-12T21:26:53.729Z,7.20
2023-03-12T21:29:21.739Z,7.07
2023-03-12T21:31:51.760Z,7.17
2023-03-12T21:34:19.579Z,6.47
2023-03-12T21:36:48.719Z,6.73
2023-03-12T21:39:17.082Z,7.30
2023-03-12T21:41:44.885Z,6.50
2023-03-12T21:44:14.236Z,6.50
2023-03-12T21:46:43.927Z,7.20
2023-03-12T21:49:13.823Z,5.67
2023-03-12T21:51:41.657Z,6.23
2023-03-12T21:54:11.007Z,6.13
2023-03-12T21:56:38.945Z,5.80
2023-03-12T21:59:06.808Z,6.30
2023-03-12T22:01:34.702Z,6.30
2023-03-12T22:04:03.233Z,6.73
2023-03-12T22:06:30.973Z,6.37
2023-03-12T22:08:58.688Z,6.53
2023-03-12T22:11:27.981Z,6.70
2023-03-12T22:13:55.841Z,7.00
2023-03-12T22:16:23.658Z,6.80
2023-03-12T22:18:51.378Z,6.70
2023-03-12T22:21:20.385Z,5.73
2023-03-12T22:23:51.146Z,6.33
2023-03-12T22:26:19.548Z,5.93
2023-03-12T22:28:51.384Z,6.37
2023-03-12T22:31:20.407Z,6.60
2023-03-12T22:33:48.244Z,7.13
2023-03-12T22:36:17.384Z,5.97
2023-03-12T22:38:47.609Z,6.43
2023-03-12T22:41:16.974Z,7.57
2023-03-12T22:43:45.504Z,6.90
2023-03-12T22:46:16.431Z,7.30
2023-03-12T22:48:44.633Z,7.03
2023-03-12T22:51:12.865Z,7.03
2023-03-12T22:53:40.950Z,6.47
2023-03-12T22:56:10.505Z,6.70
2023-03-12T22:58:38.384Z,6.40
2023-03-12T23:01:08.489Z,6.93
2023-03-12T23:03:38.696Z,6.77
2023-03-12T23:06:10.015Z,6.57
2023-03-12T23:08:38.047Z,6.57
2023-03-12T23:11:07.260Z,6.17
2023-03-12T23:13:36.298Z,6.33
2023-03-12T23:16:04.974Z,6.63
2023-03-12T23:18:32.798Z,6.33
2023-03-12T23:21:03.299Z,5.97
2023-03-12T23:23:31.437Z,6.10
2023-03-12T23:26:00.406Z,5.87
2023-03-12T23:28:29.135Z,5.87
2023-03-12T23:30:57.752Z,5.60
2023-03-12T23:33:25.994Z,5.43
2023-03-12T23:35:57.839Z,5.93
2023-03-12T23:38:27.794Z,5.90
2023-03-12T23:41:00.485Z,5.83
2023-03-12T23:43:28.374Z,5.87
2023-03-12T23:45:57.479Z,6.23
2023-03-12T23:48:25.632Z,6.00
2023-03-12T23:50:53.545Z,6.47
2023-03-12T23:53:21.763Z,6.17
2023-03-12T23:55:58.101Z,5.80
2023-03-12T23:58:26.633Z,5.47
